createdAt,value
2023-08-27T00:01:19.107Z,99087.95
2023-08-27T00:10:53.365Z,99082.74
2023-08-27T00:20:27.484Z,99069.22
2023-08-27T00:30:04.249Z,99082.88
2023-08-27T00:39:37.383Z,99083.16
2023-08-27T00:49:11.898Z,99106.77
2023-08-27T00:58:47.775Z,99117.60
2023-08-27T01:08:22.346Z,99097.27
2023-08-27T01:17:56.762Z,99105.27
2023-08-27T01:27:30.814Z,99075.77
2023-08-27T01:37:03.186Z,99077.32
2023-08-27T01:46:37.544Z,99066.33
2023-08-27T01:56:11.994Z,99055.08
2023-08-27T02:05:46.617Z,99052.95
2023-08-27T02:15:21.543Z,99026.91
2023-08-27T02:24:57.536Z,99023.70
2023-08-27T02:34:30.090Z,99022.67
2023-08-27T02:35:34.191Z,99022.86
2023-08-27T02:45:06.028Z,99044.56
2023-08-27T02:54:40.263Z,99047.66
2023-08-27T03:04:14.762Z,99046.78
2023-08-27T03:13:48.815Z,99066.58
2023-08-27T03:23:23.110Z,99037.97
2023-08-27T03:32:59.191Z,99034.74
2023-08-27T03:42:33.011Z,99019.84
2023-08-27T03:52:05.960Z,99018.95
2023-08-27T04:01:41.311Z,99006.03
2023-08-27T04:11:16.441Z,98996.09
2023-08-27T04:20:50.313Z,98972.34
2023-08-27T04:30:26.964Z,98969.88
2023-08-27T04:39:59.758Z,98974.01
2023-08-27T04:49:32.608Z,98976.80
2023-08-27T04:59:08.673Z,98983.39
2023-08-27T05:08:41.210Z,99001.38
2023-08-27T05:18:16.808Z,99025.17
2023-08-27T05:27:51.096Z,99014.38
2023-08-27T05:37:23.694Z,99001.18
2023-08-27T05:46:59.484Z,99001.95
2023-08-27T05:56:31.935Z,98971.98
2023-08-27T06:06:06.402Z,98971.16
2023-08-27T06:15:45.327Z,98956.04
2023-08-27T06:25:26.916Z,98955.30
2023-08-27T06:35:00.973Z,98989.23
2023-08-27T06:44:36.525Z,99011.83
2023-08-27T06:54:18.717Z,98974.06
2023-08-27T06:55:45.241Z,98982.83
2023-08-27T07:05:09.123Z,99007.89
2023-08-27T07:06:11.764Z,99010.63
2023-08-27T07:07:14.353Z,99006.55
2023-08-27T07:08:17.193Z,99006.85
2023-08-27T07:17:50.342Z,99009.73
2023-08-27T07:27:25.474Z,99004.80
2023-08-27T07:28:27.980Z,99002.62
2023-08-27T07:29:30.488Z,98998.88
2023-08-27T07:30:32.955Z,98995.45
2023-08-27T07:31:35.496Z,98989.08
2023-08-27T07:32:37.977Z,98994.32
2023-08-27T07:33:40.487Z,98993.34
2023-08-27T07:34:44.730Z,98998.59
2023-08-27T07:35:48.542Z,99001.49
2023-08-27T07:36:50.972Z,98998.88
2023-08-27T07:46:23.922Z,99007.92
2023-08-27T07:47:27.992Z,99013.95
2023-08-27T07:48:30.482Z,99010.86
2023-08-27T07:49:32.967Z,99019.14
2023-08-27T07:50:37.073Z,99014.34
2023-08-27T07:51:39.946Z,99018.31
2023-08-27T07:52:44.046Z,99017.92
2023-08-27T07:53:47.982Z,99013.94
2023-08-27T07:54:50.792Z,99014.45
2023-08-27T07:55:55.654Z,99016.25
2023-08-27T07:56:57.443Z,99020.58
2023-08-27T07:58:00.295Z,99020.08
2023-08-27T07:59:02.509Z,99017.35
2023-08-27T08:00:06.533Z,99021.16
2023-08-27T08:01:10.452Z,99023.65
2023-08-27T08:02:12.799Z,99020.24
2023-08-27T08:03:15.423Z,99022.84
2023-08-27T08:04:19.572Z,99021.61
2023-08-27T08:05:21.910Z,99022.50
2023-08-27T08:06:26.014Z,99028.13
2023-08-27T08:07:30.365Z,99027.86
2023-08-27T08:08:32.672Z,99027.66
2023-08-27T08:09:36.678Z,99025.60
2023-08-27T08:10:39.657Z,99019.95
2023-08-27T08:20:11.115Z,99033.84
2023-08-27T08:21:13.624Z,99042.93
2023-08-27T08:22:16.142Z,99044.67
2023-08-27T08:23:18.561Z,99045.52
2023-08-27T08:24:22.012Z,99048.58
2023-08-27T08:25:27.028Z,99044.59
2023-08-27T08:26:29.370Z,99041.33
2023-08-27T08:27:31.837Z,99037.56
2023-08-27T08:28:34.245Z,99037.05
2023-08-27T08:29:36.755Z,99035.31
2023-08-27T08:30:39.265Z,99040.64
2023-08-27T08:31:41.656Z,99040.56
2023-08-27T08:32:44.202Z,99041.16
2023-08-27T08:33:49.319Z,99044.17
2023-08-27T08:43:20.442Z,99046.44
2023-08-27T08:44:22.854Z,99051.94
2023-08-27T08:45:25.324Z,99057.78
2023-08-27T08:46:27.800Z,99065.25
2023-08-27T08:47:30.599Z,99064.94
2023-08-27T08:48:35.626Z,99062.20
2023-08-27T08:49:39.763Z,99061.69
2023-08-27T08:50:42.352Z,99058.23
2023-08-27T08:51:44.660Z,99056.00
2023-08-27T08:52:47.098Z,99052.80
2023-08-27T08:53:49.795Z,99048.77
2023-08-27T08:54:53.830Z,99048.66
2023-08-27T08:55:57.764Z,99052.29
2023-08-27T08:57:00.528Z,99055.86
2023-08-27T08:58:03.381Z,99053.43
2023-08-27T08:59:07.117Z,99052.92
2023-08-27T09:00:09.908Z,99050.30
2023-08-27T09:01:13.923Z,99052.33
2023-08-27T09:02:16.339Z,99052.22
2023-08-27T09:03:20.689Z,99050.75
2023-08-27T09:04:22.951Z,99047.02
2023-08-27T09:05:25.402Z,99051.20
2023-08-27T09:06:27.891Z,99049.09
2023-08-27T09:07:30.471Z,99043.77
2023-08-27T09:08:32.963Z,99047.48
2023-08-27T09:09:36.966Z,99050.05
2023-08-27T09:10:40.918Z,99052.82
2023-08-27T09:11:43.273Z,99051.09
2023-08-27T09:12:47.548Z,99055.80
2023-08-27T09:13:50.329Z,99052.16
2023-08-27T09:14:52.680Z,99047.19
2023-08-27T09:15:55.264Z,99049.00
2023-08-27T09:16:57.637Z,99046.91
2023-08-27T09:18:02.075Z,99043.77
2023-08-27T09:19:05.843Z,99040.44
2023-08-27T09:20:09.790Z,99034.97
2023-08-27T09:21:12.173Z,99033.80
2023-08-27T09:22:16.256Z,99029.76
2023-08-27T09:23:20.275Z,99025.73
2023-08-27T09:24:22.672Z,99024.13
2023-08-27T09:25:26.746Z,99019.67
2023-08-27T09:26:29.118Z,99023.52
2023-08-27T09:27:31.581Z,99022.34
2023-08-27T09:28:35.656Z,99018.06
2023-08-27T09:29:37.958Z,99021.92
2023-08-27T09:30:40.458Z,99019.47
2023-08-27T09:31:43.018Z,99023.87
2023-08-27T09:32:47.185Z,99027.20
2023-08-27T09:33:51.046Z,99028.95
2023-08-27T09:34:53.412Z,99029.16
2023-08-27T09:35:55.893Z,99025.57
2023-08-27T09:37:02.130Z,99023.08
2023-08-27T09:38:04.454Z,99025.41
2023-08-27T09:39:08.505Z,99021.66
2023-08-27T09:40:11.048Z,99018.77
2023-08-27T09:41:13.416Z,99019.58
2023-08-27T09:42:15.917Z,99015.25
2023-08-27T09:43:20.016Z,99015.45
2023-08-27T09:44:23.925Z,99012.82
2023-08-27T09:53:56.911Z,98988.81
2023-08-27T09:54:59.254Z,98985.86
2023-08-27T09:56:01.814Z,98981.08
2023-08-27T09:57:04.352Z,98977.11
2023-08-27T09:58:08.476Z,98975.55
2023-08-27T09:59:12.353Z,98973.22
2023-08-27T10:00:14.799Z,98974.94
2023-08-27T10:01:17.278Z,98974.81
2023-08-27T10:02:19.789Z,98977.64
2023-08-27T10:03:23.971Z,98982.72
2023-08-27T10:04:26.238Z,98985.45
2023-08-27T10:05:28.736Z,98989.06
2023-08-27T10:06:31.271Z,98980.53
2023-08-27T10:07:33.701Z,98983.80
2023-08-27T10:08:37.883Z,98982.46
2023-08-27T10:09:40.254Z,98982.09
2023-08-27T10:10:44.429Z,98978.81
2023-08-27T10:11:46.798Z,98977.60
2023-08-27T10:12:50.941Z,98981.53
2023-08-27T10:13:54.857Z,98991.53
2023-08-27T10:14:58.840Z,98987.72
2023-08-27T10:16:01.286Z,98982.90
2023-08-27T10:17:05.373Z,98984.06
2023-08-27T10:18:09.412Z,98981.45
2023-08-27T10:19:11.770Z,98981.22
2023-08-27T10:20:14.299Z,98985.91
2023-08-27T10:21:18.374Z,98986.75
2023-08-27T10:22:20.728Z,98987.69
2023-08-27T10:23:23.216Z,98980.02
2023-08-27T10:24:25.993Z,98980.39
2023-08-27T10:25:30.237Z,98977.99
2023-08-27T10:26:32.584Z,98977.41
2023-08-27T10:27:36.680Z,98976.80
2023-08-27T10:28:39.020Z,98975.33
2023-08-27T10:29:43.123Z,98971.84
2023-08-27T10:30:45.494Z,98969.88
2023-08-27T10:31:48.081Z,98968.70
2023-08-27T10:32:50.544Z,98968.53
2023-08-27T10:33:53.070Z,98968.02
2023-08-27T10:34:55.548Z,98963.05
2023-08-27T10:35:59.615Z,98963.41
2023-08-27T10:37:02.132Z,98961.05
2023-08-27T10:38:04.435Z,98961.41
2023-08-27T10:39:09.611Z,98961.75
2023-08-27T10:40:12.781Z,98966.02
2023-08-27T10:41:16.894Z,98962.98
2023-08-27T10:42:20.969Z,98965.59
2023-08-27T10:43:23.226Z,98964.41
2023-08-27T10:44:25.722Z,98973.47
2023-08-27T10:45:29.827Z,98967.23
2023-08-27T10:46:32.069Z,98971.00
2023-08-27T10:47:36.201Z,98969.13
2023-08-27T10:48:40.159Z,98972.09
2023-08-27T10:49:42.501Z,98975.62
2023-08-27T10:50:45.104Z,98967.06
2023-08-27T10:51:47.519Z,98973.83
2023-08-27T10:52:49.965Z,98973.61
2023-08-27T10:53:52.543Z,98975.18
2023-08-27T10:54:56.638Z,98979.16
2023-08-27T10:56:00.053Z,98975.42
2023-08-27T10:57:02.419Z,98977.20
2023-08-27T10:58:05.870Z,98975.92
2023-08-27T10:59:09.848Z,98979.67
2023-08-27T11:00:13.950Z,98982.22
2023-08-27T11:01:16.174Z,98985.12
2023-08-27T11:02:20.245Z,98982.48
2023-08-27T11:03:22.732Z,98984.45
2023-08-27T11:04:26.702Z,98980.31
2023-08-27T11:05:29.067Z,98971.97
2023-08-27T11:06:31.518Z,98970.14
2023-08-27T11:07:34.141Z,98967.61
2023-08-27T11:08:36.433Z,98968.80
2023-08-27T11:09:38.885Z,98968.79
2023-08-27T11:10:42.879Z,98971.02
2023-08-27T11:11:45.279Z,98973.24
2023-08-27T11:12:48.147Z,98969.81
2023-08-27T11:13:50.786Z,98966.49
2023-08-27T11:14:53.203Z,98973.41
2023-08-27T11:15:55.712Z,98977.87
2023-08-27T11:16:59.783Z,98984.34
2023-08-27T11:18:02.407Z,98980.06
2023-08-27T11:19:06.259Z,98971.27
2023-08-27T11:20:11.273Z,98974.42
2023-08-27T11:21:15.180Z,98970.94
2023-08-27T11:22:18.573Z,98971.31
2023-08-27T11:23:21.009Z,98968.48
2023-08-27T11:24:23.443Z,98971.07
2023-08-27T11:25:26.991Z,98969.20
2023-08-27T11:26:28.384Z,98964.92
2023-08-27T11:27:30.956Z,98965.19
2023-08-27T11:28:33.315Z,98965.54
2023-08-27T11:29:35.825Z,98964.10
2023-08-27T11:30:38.454Z,98966.13
2023-08-27T11:31:42.619Z,98968.95
2023-08-27T11:32:46.576Z,98969.56
2023-08-27T11:33:50.026Z,98965.89
2023-08-27T11:34:52.433Z,98962.41
2023-08-27T11:35:56.622Z,98958.57
2023-08-27T11:36:58.812Z,98958.08
2023-08-27T11:38:03.047Z,98960.46
2023-08-27T11:39:06.813Z,98956.37
2023-08-27T11:40:10.209Z,98960.30
2023-08-27T11:41:14.273Z,98959.23
2023-08-27T11:42:16.699Z,98958.92
2023-08-27T11:43:20.722Z,98955.06
2023-08-27T11:44:23.095Z,98954.80
2023-08-27T11:45:25.568Z,98956.94
2023-08-27T11:46:29.712Z,98955.00
2023-08-27T11:47:33.622Z,98959.25
2023-08-27T11:48:36.082Z,98955.86
2023-08-27T11:49:38.614Z,98954.05
2023-08-27T11:50:41.026Z,98954.84
2023-08-27T11:51:43.564Z,98950.28
2023-08-27T11:52:46.049Z,98948.09
2023-08-27T11:53:48.558Z,98945.60
2023-08-27T11:54:51.038Z,98946.73
2023-08-27T11:55:53.504Z,98944.44
2023-08-27T11:56:55.905Z,98939.20
2023-08-27T11:57:59.546Z,98935.11
2023-08-27T11:59:03.225Z,98933.58
2023-08-27T12:00:05.618Z,98932.47
2023-08-27T12:01:09.768Z,98930.23
2023-08-27T12:02:12.141Z,98940.16
2023-08-27T12:03:14.629Z,98938.29
2023-08-27T12:04:17.086Z,98939.49
2023-08-27T12:05:21.211Z,98945.55
2023-08-27T12:06:25.166Z,98941.36
2023-08-27T12:07:29.610Z,98939.90
2023-08-27T12:08:34.060Z,98946.73
2023-08-27T12:09:36.523Z,98949.72
2023-08-27T12:10:40.597Z,98954.06
2023-08-27T12:11:44.544Z,98947.92
2023-08-27T12:12:47.002Z,98953.40
2023-08-27T12:13:49.353Z,98948.11
2023-08-27T12:14:51.844Z,98940.14
2023-08-27T12:15:56.000Z,98939.65
2023-08-27T12:16:59.962Z,98941.62
2023-08-27T12:18:02.414Z,98952.02
2023-08-27T12:19:06.350Z,98952.29
2023-08-27T12:20:08.841Z,98954.16
2023-08-27T12:21:12.761Z,98958.17
2023-08-27T12:22:15.122Z,98961.00
2023-08-27T12:23:19.191Z,98957.59
2023-08-27T12:24:24.391Z,98956.55
2023-08-27T12:25:29.018Z,98957.33
2023-08-27T12:26:31.141Z,98954.33
2023-08-27T12:27:33.659Z,98958.33
2023-08-27T12:28:36.152Z,98956.63
2023-08-27T12:29:38.721Z,98960.50
2023-08-27T12:30:42.941Z,98963.55
2023-08-27T12:31:46.847Z,98959.35
2023-08-27T12:32:50.667Z,98959.01
2023-08-27T12:33:54.554Z,98957.64
2023-08-27T12:34:58.489Z,98959.59
2023-08-27T12:36:02.394Z,98962.15
2023-08-27T12:37:07.543Z,98962.50
2023-08-27T12:38:09.794Z,98963.19
2023-08-27T12:39:12.369Z,98960.61
2023-08-27T12:40:14.646Z,98963.60
2023-08-27T12:41:18.746Z,98964.97
2023-08-27T12:42:21.179Z,98964.30
2023-08-27T12:43:23.564Z,98967.61
2023-08-27T12:52:56.572Z,98963.34
2023-08-27T12:53:58.945Z,98957.57
2023-08-27T12:55:03.060Z,98961.65
2023-08-27T12:56:07.653Z,98963.10
2023-08-27T12:57:09.484Z,98963.36
2023-08-27T12:58:11.847Z,98968.50
2023-08-27T12:59:16.034Z,98970.13
2023-08-27T13:00:19.950Z,98972.77
2023-08-27T13:01:23.434Z,98975.17
2023-08-27T13:02:27.458Z,98979.88
2023-08-27T13:03:31.441Z,98981.67
2023-08-27T13:04:33.935Z,98984.77
2023-08-27T13:05:36.290Z,98982.28
2023-08-27T13:06:38.830Z,98986.98
2023-08-27T13:07:42.853Z,98986.62
2023-08-27T13:08:45.245Z,98982.89
2023-08-27T13:09:47.741Z,98978.70
2023-08-27T13:19:20.464Z,98979.95
2023-08-27T13:20:23.057Z,98981.74
2023-08-27T13:21:25.521Z,98985.66
2023-08-27T13:22:29.587Z,98983.63
2023-08-27T13:23:32.039Z,98987.83
2023-08-27T13:24:34.453Z,98991.06
2023-08-27T13:25:36.940Z,98991.25
2023-08-27T13:26:39.468Z,98987.98
2023-08-27T13:27:41.972Z,98992.00
2023-08-27T13:28:45.447Z,98994.47
2023-08-27T13:29:49.489Z,98996.97
2023-08-27T13:30:51.881Z,98998.91
2023-08-27T13:31:54.332Z,98999.00
2023-08-27T13:32:56.903Z,99003.01
2023-08-27T13:34:01.053Z,99008.72
2023-08-27T13:35:05.049Z,99020.06
2023-08-27T13:36:08.953Z,99019.63
2023-08-27T13:37:11.453Z,99015.08
2023-08-27T13:38:13.769Z,99016.36
2023-08-27T13:39:17.868Z,99014.55
2023-08-27T13:40:20.199Z,99019.98
2023-08-27T13:41:22.725Z,99020.97
2023-08-27T13:42:26.965Z,99020.10
2023-08-27T13:43:30.959Z,99016.64
2023-08-27T13:44:33.264Z,99018.66
2023-08-27T13:45:37.384Z,99017.45
2023-08-27T13:46:40.872Z,99023.33
2023-08-27T13:47:43.308Z,99020.05
2023-08-27T13:48:47.388Z,99023.97
2023-08-27T13:49:51.398Z,99018.26
2023-08-27T13:50:53.882Z,99022.09
2023-08-27T13:51:56.373Z,99025.25
2023-08-27T13:52:58.918Z,99021.29
2023-08-27T13:54:01.322Z,99019.00
2023-08-27T13:55:03.806Z,99011.73
2023-08-27T13:56:07.882Z,99007.80
2023-08-27T13:57:11.786Z,99008.38
2023-08-27T13:58:15.721Z,99007.53
2023-08-27T13:59:19.686Z,99003.71
2023-08-27T14:00:22.089Z,99004.56
2023-08-27T14:01:26.188Z,99003.59
2023-08-27T14:02:28.674Z,98999.94
2023-08-27T14:03:31.181Z,98994.73
2023-08-27T14:04:35.198Z,98992.56
2023-08-27T14:05:39.139Z,98996.31
2023-08-27T14:06:43.082Z,98994.16
2023-08-27T14:07:47.061Z,98991.59
2023-08-27T14:08:51.046Z,98994.83
2023-08-27T14:09:55.046Z,98991.37
2023-08-27T14:10:57.359Z,98987.39
2023-08-27T14:11:59.841Z,98985.17
2023-08-27T14:13:02.246Z,98985.57
2023-08-27T14:14:04.754Z,98986.45
2023-08-27T14:15:07.263Z,98984.70
2023-08-27T14:16:11.357Z,98984.52
2023-08-27T14:17:13.779Z,98981.02
2023-08-27T14:18:16.215Z,98984.09
2023-08-27T14:19:18.782Z,98983.14
2023-08-27T14:20:21.182Z,98977.94
2023-08-27T14:21:23.711Z,98974.80
2023-08-27T14:22:26.262Z,98975.38
2023-08-27T14:23:30.310Z,98977.25
2023-08-27T14:24:32.649Z,98978.20
2023-08-27T14:25:35.132Z,98975.49
2023-08-27T14:26:37.654Z,98976.75
2023-08-27T14:27:41.746Z,98979.41
2023-08-27T14:28:45.681Z,98978.31
2023-08-27T14:29:48.006Z,98982.78
2023-08-27T14:30:50.474Z,98981.00
2023-08-27T14:31:52.932Z,98982.53
2023-08-27T14:32:55.427Z,98979.81
2023-08-27T14:33:57.846Z,98981.80
2023-08-27T14:35:01.981Z,98986.72
2023-08-27T14:36:05.943Z,98984.33
2023-08-27T14:37:08.320Z,98980.34
2023-08-27T14:38:12.429Z,98980.77
2023-08-27T14:39:16.351Z,98980.09
2023-08-27T14:40:18.819Z,98975.48
2023-08-27T14:41:23.007Z,98977.72
2023-08-27T14:42:25.325Z,98975.08
2023-08-27T14:43:27.837Z,98983.06
2023-08-27T14:44:30.315Z,98986.25
2023-08-27T14:45:32.849Z,98981.83
2023-08-27T14:46:36.011Z,98977.63
2023-08-27T14:47:39.570Z,98969.53
2023-08-27T14:48:43.313Z,98969.98
2023-08-27T14:49:47.305Z,98974.90
2023-08-27T14:50:51.223Z,98973.23
2023-08-27T14:51:55.166Z,98971.34
2023-08-27T14:52:59.120Z,98969.89
2023-08-27T14:54:01.567Z,98964.20
2023-08-27T14:55:06.514Z,98969.15
2023-08-27T14:56:07.989Z,98963.97
2023-08-27T14:57:12.096Z,98967.01
2023-08-27T14:58:16.119Z,98965.60
2023-08-27T14:59:18.527Z,98965.84
2023-08-27T15:00:20.976Z,98968.14
2023-08-27T15:01:23.502Z,98967.92
2023-08-27T15:02:27.577Z,98968.86
2023-08-27T15:03:31.524Z,98969.96
2023-08-27T15:04:35.794Z,98971.16
2023-08-27T15:05:38.080Z,98974.39
2023-08-27T15:06:40.511Z,98970.73
2023-08-27T15:07:42.998Z,98970.05
2023-08-27T15:08:47.034Z,98974.70
2023-08-27T15:09:51.027Z,98975.38
2023-08-27T15:10:53.379Z,98977.84
2023-08-27T15:11:57.456Z,98974.78
2023-08-27T15:13:01.399Z,98974.30
2023-08-27T15:14:05.595Z,98972.26
2023-08-27T15:15:08.032Z,98974.99
2023-08-27T15:16:12.025Z,98973.22
2023-08-27T15:17:16.146Z,98976.00
2023-08-27T15:18:18.455Z,98975.42
2023-08-27T15:19:22.487Z,98975.50
2023-08-27T15:20:26.502Z,98978.76
2023-08-27T15:21:28.874Z,98977.73
2023-08-27T15:22:32.917Z,98977.57
2023-08-27T15:23:36.879Z,98979.45
2023-08-27T15:24:40.852Z,98981.68
2023-08-27T15:25:43.286Z,98986.91
2023-08-27T15:26:45.810Z,98980.92
2023-08-27T15:27:48.405Z,98985.03
2023-08-27T15:28:50.757Z,98982.63
2023-08-27T15:29:54.867Z,98987.48
2023-08-27T15:30:58.228Z,98982.02
2023-08-27T15:32:02.205Z,98979.55
2023-08-27T15:33:04.625Z,98978.96
2023-08-27T15:34:07.025Z,98981.85
2023-08-27T15:35:09.606Z,98982.91
2023-08-27T15:36:12.127Z,98982.31
2023-08-27T15:37:14.619Z,98975.73
2023-08-27T15:38:18.671Z,98977.27
2023-08-27T15:39:21.128Z,98974.28
2023-08-27T15:40:23.632Z,98972.41
2023-08-27T15:41:26.136Z,98972.67
2023-08-27T15:42:28.685Z,98974.95
2023-08-27T15:43:31.102Z,98971.20
2023-08-27T15:44:35.319Z,98974.97
2023-08-27T15:45:37.576Z,98972.73
2023-08-27T15:46:41.705Z,98975.21
2023-08-27T15:47:44.113Z,98975.59
2023-08-27T15:48:48.221Z,98975.58
2023-08-27T15:49:52.107Z,98967.05
2023-08-27T15:50:56.110Z,98964.81
2023-08-27T15:52:00.063Z,98968.56
2023-08-27T15:53:02.603Z,98971.39
2023-08-27T15:54:04.988Z,98965.61
2023-08-27T15:55:07.551Z,98965.52
2023-08-27T15:56:09.994Z,98964.73
2023-08-27T15:57:12.428Z,98962.77
2023-08-27T15:58:15.921Z,98966.17
2023-08-27T15:59:19.947Z,98959.77
2023-08-27T16:00:22.433Z,98961.83
2023-08-27T16:01:26.439Z,98959.18
2023-08-27T16:02:28.943Z,98956.53
2023-08-27T16:03:32.843Z,98955.49
2023-08-27T16:04:36.149Z,98956.54
2023-08-27T16:05:38.524Z,98958.50
2023-08-27T16:06:41.081Z,98955.51
2023-08-27T16:07:43.517Z,98952.42
2023-08-27T16:08:46.171Z,98955.42
2023-08-27T16:09:50.184Z,98953.04
2023-08-27T16:10:52.701Z,98953.47
2023-08-27T16:11:56.833Z,98952.97
2023-08-27T16:13:01.055Z,98959.69
2023-08-27T16:14:04.991Z,98961.30
2023-08-27T16:15:07.301Z,98962.00
2023-08-27T16:16:09.895Z,98959.52
2023-08-27T16:17:12.197Z,98957.64
2023-08-27T16:18:14.684Z,98961.30
2023-08-27T16:19:17.186Z,98963.34
2023-08-27T16:20:19.718Z,98960.69
2023-08-27T16:21:22.374Z,98960.61
2023-08-27T16:22:24.836Z,98964.97
2023-08-27T16:23:27.443Z,98964.20
2023-08-27T16:24:31.565Z,98963.06
2023-08-27T16:25:35.500Z,98968.66
2023-08-27T16:26:37.829Z,98969.32
2023-08-27T16:27:41.899Z,98971.28
2023-08-27T16:28:45.891Z,98969.34
2023-08-27T16:29:49.918Z,98971.14
2023-08-27T16:30:52.393Z,98966.63
2023-08-27T16:31:54.869Z,98970.08
2023-08-27T16:32:58.542Z,98970.27
2023-08-27T16:34:02.573Z,98968.39
2023-08-27T16:35:05.963Z,98963.77
2023-08-27T16:36:08.369Z,98960.61
2023-08-27T16:37:10.803Z,98967.52
2023-08-27T16:38:13.208Z,98970.27
2023-08-27T16:39:15.674Z,98973.13
2023-08-27T16:40:19.708Z,98971.56
2023-08-27T16:41:22.077Z,98975.92
2023-08-27T16:42:26.033Z,98972.86
2023-08-27T16:43:29.381Z,98978.50
2023-08-27T16:44:37.319Z,98979.46
2023-08-27T16:45:39.484Z,98976.92
2023-08-27T16:46:42.049Z,98971.20
2023-08-27T16:47:44.473Z,98972.33
2023-08-27T16:48:48.535Z,98971.54
2023-08-27T16:49:50.875Z,98970.95
2023-08-27T16:50:53.191Z,98968.39
2023-08-27T16:51:55.820Z,98966.17
2023-08-27T16:52:59.761Z,98965.83
2023-08-27T16:54:02.127Z,98971.22
2023-08-27T16:55:06.267Z,98971.30
2023-08-27T16:56:10.144Z,98973.34
2023-08-27T16:57:12.589Z,98977.70
2023-08-27T16:58:15.020Z,98981.35
2023-08-27T16:59:17.556Z,98976.39
2023-08-27T17:00:20.117Z,98978.94
2023-08-27T17:01:24.336Z,98980.48
2023-08-27T17:02:26.729Z,98982.34
2023-08-27T17:03:29.326Z,98982.05
2023-08-27T17:04:31.683Z,98979.94
2023-08-27T17:05:34.221Z,98979.91
2023-08-27T17:06:36.780Z,98980.83
2023-08-27T17:07:39.275Z,98984.14
2023-08-27T17:08:41.706Z,98977.83
2023-08-27T17:09:44.123Z,98980.45
2023-08-27T17:10:46.857Z,98978.30
2023-08-27T17:11:49.425Z,98984.52
2023-08-27T17:12:51.977Z,98981.77
2023-08-27T17:13:54.530Z,98985.92
2023-08-27T17:14:58.480Z,98994.88
2023-08-27T17:16:00.890Z,98988.82
2023-08-27T17:17:03.520Z,98993.03
2023-08-27T17:18:07.678Z,98992.77
2023-08-27T17:19:11.648Z,98992.33
2023-08-27T17:20:13.982Z,98997.13
2023-08-27T17:21:16.488Z,99002.33
2023-08-27T17:22:19.036Z,99000.93
2023-08-27T17:23:21.568Z,99001.95
2023-08-27T17:24:24.094Z,99001.23
2023-08-27T17:25:26.583Z,99001.91
2023-08-27T17:26:29.050Z,98998.48
2023-08-27T17:27:31.533Z,99008.70
2023-08-27T17:28:34.240Z,99007.43
2023-08-27T17:29:36.767Z,99009.88
2023-08-27T17:30:39.293Z,99007.00
2023-08-27T17:31:41.864Z,99008.11
2023-08-27T17:32:44.593Z,99010.36
2023-08-27T17:33:47.085Z,99008.67
2023-08-27T17:34:49.682Z,99009.63
2023-08-27T17:35:53.761Z,99007.38
2023-08-27T17:36:57.738Z,99010.63
2023-08-27T17:38:00.393Z,99010.46
2023-08-27T17:39:02.611Z,99016.00
2023-08-27T17:40:05.119Z,99018.02
2023-08-27T17:41:07.611Z,99021.75
2023-08-27T17:42:10.108Z,99022.72
2023-08-27T17:43:13.408Z,99023.72
2023-08-27T17:44:16.072Z,99026.78
2023-08-27T17:45:18.576Z,99022.15
2023-08-27T17:46:23.067Z,99020.00
2023-08-27T17:47:27.048Z,99020.85
2023-08-27T17:48:29.532Z,99024.05
2023-08-27T17:49:32.074Z,99026.56
2023-08-27T17:50:34.591Z,99022.55
2023-08-27T17:51:37.018Z,99019.80
2023-08-27T17:52:39.475Z,99023.10
2023-08-27T17:53:42.004Z,99027.06
2023-08-27T17:54:44.566Z,99023.98
2023-08-27T17:55:48.733Z,99028.67
2023-08-27T17:56:51.227Z,99033.64
2023-08-27T17:57:53.682Z,99032.66
2023-08-27T17:58:56.268Z,99038.12
2023-08-27T18:00:00.421Z,99035.66
2023-08-27T18:01:04.614Z,99033.60
2023-08-27T18:02:06.835Z,99030.17
2023-08-27T18:03:09.286Z,99030.66
2023-08-27T18:04:13.238Z,99039.23
2023-08-27T18:05:17.268Z,99032.72
2023-08-27T18:06:19.655Z,99034.14
2023-08-27T18:07:22.112Z,99031.05
2023-08-27T18:08:26.518Z,99030.68
2023-08-27T18:09:26.994Z,99028.23
2023-08-27T18:10:29.488Z,99025.12
2023-08-27T18:11:31.983Z,99029.53
2023-08-27T18:12:34.413Z,99035.45
2023-08-27T18:13:36.925Z,99033.38
2023-08-27T18:14:39.382Z,99030.98
2023-08-27T18:15:41.887Z,99030.59
2023-08-27T18:16:44.361Z,99035.83
2023-08-27T18:17:46.845Z,99040.92
2023-08-27T18:18:49.344Z,99041.58
2023-08-27T18:19:51.887Z,99044.36
2023-08-27T18:20:55.973Z,99038.52
2023-08-27T18:22:00.216Z,99044.30
2023-08-27T18:23:02.695Z,99046.80
2023-08-27T18:24:06.781Z,99046.77
2023-08-27T18:25:09.107Z,99043.59
2023-08-27T18:26:13.168Z,99044.80
2023-08-27T18:27:15.527Z,99043.63
2023-08-27T18:28:18.034Z,99048.50
2023-08-27T18:29:20.510Z,99043.86
2023-08-27T18:30:24.578Z,99047.31
2023-08-27T18:31:28.539Z,99049.14
2023-08-27T18:32:30.941Z,99054.34
2023-08-27T18:33:33.393Z,99057.73
2023-08-27T18:34:35.894Z,99056.91
2023-08-27T18:35:38.568Z,99058.22
2023-08-27T18:36:42.654Z,99061.14
2023-08-27T18:37:46.666Z,99066.13
2023-08-27T18:38:49.110Z,99065.13
2023-08-27T18:39:51.607Z,99067.78
2023-08-27T18:40:54.076Z,99069.07
2023-08-27T18:41:56.549Z,99070.97
2023-08-27T18:42:59.095Z,99072.27
2023-08-27T18:44:01.574Z,99075.55
2023-08-27T18:53:34.609Z,99091.27
2023-08-27T18:54:37.116Z,99089.61
2023-08-27T19:04:10.112Z,99110.23
2023-08-27T19:13:44.390Z,99133.56
2023-08-27T19:23:20.146Z,99148.07
2023-08-27T19:32:52.972Z,99159.63
2023-08-27T19:42:28.994Z,99180.27
2023-08-27T19:43:31.479Z,99181.00
2023-08-27T19:53:04.925Z,99199.02
2023-08-27T20:02:39.154Z,99203.83
2023-08-27T20:12:13.457Z,99199.25
2023-08-27T20:21:47.369Z,99217.09
2023-08-27T20:31:21.684Z,99243.63
2023-08-27T20:40:56.992Z,99252.94
2023-08-27T20:50:31.193Z,99267.20
2023-08-27T21:00:03.882Z,99260.80
2023-08-27T21:09:38.301Z,99257.03
2023-08-27T21:19:12.888Z,99259.20
2023-08-27T21:28:47.607Z,99258.61
2023-08-27T21:38:21.534Z,99271.22
2023-08-27T21:47:57.194Z,99282.22
2023-08-27T21:57:29.753Z,99282.42
2023-08-27T22:07:04.020Z,99284.56
2023-08-27T22:16:39.819Z,99279.80
2023-08-27T22:26:13.724Z,99282.46
2023-08-27T22:35:47.716Z,99277.02
2023-08-27T22:45:21.649Z,99268.75
2023-08-27T22:54:54.057Z,99267.38
2023-08-27T23:04:28.258Z,99263.89
2023-08-27T23:14:04.193Z,99270.86
2023-08-27T23:23:36.442Z,99280.82
2023-08-27T23:33:10.946Z,99285.22
2023-08-27T23:42:46.585Z,99275.63
2023-08-27T23:52:18.781Z,99276.48
